Aérodrome :
LOGIN :

S'inscrire | Disclaimer

   EN    FR    IT 

 










Légende :    VFR   VFR Marginal   IFR   IFR Intensif   IFR Très Intensif
Visi : 
Plafond : 
>= 8 km
>= 3000ft
5 à 8 km
1000 à 3000 ft
1500m à 5 km
500 à 1000 ft
800 à 1500m
200 à 500 ft
< 800m
< 200 ft
Symboles :   Orages  Brouillard  Fortes neiges  Fortes précipitations  Vent > 20 kt
SIGMETs :   Divers  Orages  Givrage  Turbulence  Onde Orograph.  Cendres Volcan.






- Altitude de l'aérodrome : 1197 ft
- Code IATA : SPM


ETAD - Spangdahlem Ab

DERNIER METAR :
  • 281756Z AUTO 36011G19KT 9999 CLR 10/M02 A3009 RMK AO2 SLP187 T01021018 10168 20102 52013 $

METARs EXPIRÉS :
  • 281656Z AUTO 34013G20KT 9999 CLR 12/M02 A3007 RMK AO2 SLP178 T01241019
  • 281556Z AUTO 34015G19KT 9999 CLR 14/01 A3007 RMK AO2 SLP177 T01430012

TAF TAF ETAD
Valide du 28 à 11h jusqu'au 29 à 17h UTC


281100Z 2811/2917 05012KT 9999 FEW150 QNH3005INS
BECMG 2816/2817 02010G18KT 9999 FEW040 QNH3007INS
BECMG 2820/2821 03009KT 9999 BKN020 OVC070 620703 QNH3015INS
BECMG 2906/2907 01015G25KT 9999 BKN020 QNH3020INS TX14/2814Z TN01/2906Z



MET'MAP, la Météo Aéronautique d'un coup d'oeil ! - Copyright ORBIFLY Décembre 2007 - Disclaimer

ORBIFLY MET'MAP TEAM :

Programmation & Développement : Alexandra Zaïnal
Sur une idée originale de : Baudouin d'Aumeries
Assistance à la programmation : Marc-Olivier Méhu
Soutien technique & logistique : Manuel Goepfert

Contact : metmap@orbifly.com




SOURCES & CREDITS :

   NOAA